createdAt,value
2018-07-09T00:02:16.699Z,73.10
2018-07-09T00:04:46.026Z,73.60
2018-07-09T00:07:15.465Z,73.80
2018-07-09T00:09:45.040Z,74.50
2018-07-09T00:12:14.461Z,75.30
2018-07-09T00:14:43.845Z,76.10
2018-07-09T00:17:13.343Z,76.80
2018-07-09T00:22:11.579Z,78.90
2018-07-09T00:24:41.009Z,79.60
2018-07-09T00:32:08.186Z,81.40
2018-07-09T00:34:37.576Z,82.00
2018-07-09T00:37:07.001Z,82.20
2018-07-09T00:39:36.442Z,82.80
2018-07-09T00:42:05.991Z,83.00
2018-07-09T00:44:35.294Z,83.20
2018-07-09T00:49:33.644Z,84.40
2018-07-09T00:52:03.088Z,84.80
2018-07-09T00:54:32.536Z,84.90
2018-07-09T00:57:02.036Z,85.20
2018-07-09T00:59:31.457Z,85.40
2018-07-09T01:02:01.819Z,85.80
2018-07-09T01:04:31.209Z,86.10
2018-07-09T01:07:00.615Z,87.20
2018-07-09T01:09:29.909Z,87.70
2018-07-09T01:12:10.936Z,87.90
2018-07-09T01:14:40.963Z,88.40
2018-07-09T01:17:10.328Z,89.30
2018-07-09T01:22:08.619Z,90.20
2018-07-09T01:27:06.854Z,90.70
2018-07-09T01:29:36.386Z,90.90
2018-07-09T01:32:05.742Z,91.10
2018-07-09T01:34:35.288Z,91.20
2018-07-09T01:37:04.782Z,91.30
2018-07-09T01:42:03.982Z,91.50
2018-07-09T01:44:33.388Z,91.70
2018-07-09T01:47:02.715Z,91.90
2018-07-09T01:49:32.376Z,92.10
2018-07-09T01:52:02.283Z,92.20
2018-07-09T01:59:29.414Z,92.50
2018-07-09T02:01:58.869Z,92.70
2018-07-09T02:04:28.254Z,93.00
2018-07-09T02:09:26.598Z,93.30
2018-07-09T02:11:56.608Z,93.50
2018-07-09T02:14:25.938Z,93.60
2018-07-09T02:16:55.292Z,93.70
2018-07-09T02:19:25.483Z,93.80
2018-07-09T02:29:21.608Z,93.80
2018-07-09T02:31:50.988Z,93.70
2018-07-09T02:34:20.405Z,93.50
2018-07-09T02:36:49.852Z,93.40
2018-07-09T02:39:19.178Z,93.50
2018-07-09T02:46:46.294Z,93.60
2018-07-09T02:49:15.707Z,93.70
2018-07-09T02:51:44.988Z,93.70
2018-07-09T02:54:14.508Z,93.80
2018-07-09T02:56:43.854Z,94.00
2018-07-09T02:59:13.196Z,94.10
2018-07-09T03:01:42.637Z,94.20
2018-07-09T03:04:11.992Z,94.40
2018-07-09T03:06:41.421Z,94.50
2018-07-09T03:09:10.793Z,94.70
2018-07-09T03:11:40.085Z,94.80
2018-07-09T03:14:09.465Z,95.00
2018-07-09T03:21:36.599Z,95.10
2018-07-09T03:24:06.102Z,95.20
2018-07-09T03:26:35.637Z,95.20
2018-07-09T03:29:05.166Z,95.10
2018-07-09T03:34:03.657Z,95.20
2018-07-09T03:36:33.251Z,95.20
2018-07-09T03:39:02.728Z,95.00
2018-07-09T03:41:32.065Z,95.20
2018-07-09T03:46:30.356Z,95.10
2018-07-09T03:51:30.313Z,95.00
2018-07-09T03:53:59.666Z,95.10
2018-07-09T03:56:29.777Z,95.00
2018-07-09T03:58:59.179Z,94.90
2018-07-09T04:01:29.100Z,94.80
2018-07-09T04:03:58.441Z,94.70
2018-07-09T04:06:28.293Z,94.70
2018-07-09T04:11:27.174Z,94.70
2018-07-09T04:13:57.166Z,94.50
2018-07-09T04:18:55.568Z,94.20
2018-07-09T04:21:25.418Z,94.10
2018-07-09T04:23:55.873Z,94.10
2018-07-09T04:26:25.242Z,94.00
2018-07-09T04:28:54.579Z,93.80
2018-07-09T04:31:23.859Z,93.70
2018-07-09T04:33:53.304Z,93.50
2018-07-09T04:36:22.808Z,93.50
2018-07-09T04:41:21.175Z,93.40
2018-07-09T04:43:50.690Z,93.50
2018-07-09T04:46:20.641Z,93.80
2018-07-09T04:48:50.697Z,94.00
2018-07-09T04:51:20.110Z,94.20
2018-07-09T04:53:49.450Z,94.20
2018-07-09T04:56:18.900Z,94.40
2018-07-09T04:58:48.212Z,94.50
2018-07-09T05:03:46.524Z,94.60
2018-07-09T05:06:15.881Z,94.20
2018-07-09T05:08:45.134Z,94.10
2018-07-09T05:16:12.801Z,93.10
2018-07-09T05:18:42.714Z,92.90
2018-07-09T05:23:41.014Z,92.30
2018-07-09T05:26:11.025Z,92.10
2018-07-09T05:28:41.670Z,91.90
2018-07-09T05:31:11.100Z,91.70
2018-07-09T05:33:41.182Z,91.90
2018-07-09T05:36:10.580Z,91.80
2018-07-09T05:38:40.021Z,91.80
2018-07-09T05:41:10.739Z,91.70
2018-07-09T05:43:40.573Z,91.60
2018-07-09T05:46:10.682Z,91.40
2018-07-09T05:48:40.169Z,91.50
2018-07-09T05:53:38.453Z,91.60
2018-07-09T05:58:37.033Z,91.70
2018-07-09T06:01:07.480Z,91.80
2018-07-09T06:03:38.396Z,91.70
2018-07-09T06:06:10.131Z,92.00
2018-07-09T06:08:39.538Z,91.40
2018-07-09T06:11:09.737Z,91.40
2018-07-09T06:13:40.802Z,91.10
2018-07-09T06:16:10.173Z,91.00
2018-07-09T06:18:39.652Z,91.10
2018-07-09T06:21:09.583Z,91.00
2018-07-09T06:23:40.270Z,90.90
2018-07-09T06:26:09.732Z,90.50
2018-07-09T06:28:39.409Z,90.20
2018-07-09T06:31:08.878Z,90.30
2018-07-09T06:33:40.922Z,89.90
2018-07-09T06:36:10.525Z,89.60
2018-07-09T06:38:39.924Z,89.90
2018-07-09T06:41:09.250Z,90.00
2018-07-09T06:43:38.676Z,90.10
2018-07-09T06:48:37.112Z,88.30
2018-07-09T06:51:06.872Z,87.90
2018-07-09T06:53:37.012Z,86.80
2018-07-09T06:58:35.582Z,86.80
2018-07-09T07:06:03.335Z,86.50
2018-07-09T07:08:33.310Z,86.80
2018-07-09T07:11:03.406Z,86.20
2018-07-09T07:13:35.725Z,86.10
2018-07-09T07:16:05.174Z,85.90
2018-07-09T07:18:34.615Z,85.10
2018-07-09T07:23:32.909Z,83.90
2018-07-09T07:26:02.455Z,84.20
2018-07-09T07:28:32.022Z,84.50
2018-07-09T07:36:00.264Z,83.60
2018-07-09T07:38:29.661Z,82.70
2018-07-09T07:40:59.179Z,83.10
2018-07-09T07:43:29.101Z,83.20
2018-07-09T07:45:58.561Z,83.50
2018-07-09T07:50:58.043Z,82.60
2018-07-09T07:53:27.501Z,82.40
2018-07-09T07:55:56.992Z,82.00
2018-07-09T07:58:26.431Z,81.40
2018-07-09T08:00:55.845Z,81.20
2018-07-09T08:03:25.149Z,81.80
2018-07-09T08:05:54.514Z,82.30
2018-07-09T08:08:24.087Z,81.60
2018-07-09T08:10:53.614Z,81.10
2018-07-09T08:13:29.426Z,80.70
2018-07-09T08:15:52.581Z,80.20
2018-07-09T08:18:22.073Z,81.00
2018-07-09T08:20:51.445Z,81.10
2018-07-09T08:23:21.007Z,80.80
2018-07-09T08:28:19.254Z,78.10
2018-07-09T08:30:48.644Z,76.80
2018-07-09T08:33:18.147Z,75.50
2018-07-09T08:35:47.673Z,75.00
2018-07-09T08:38:17.647Z,75.80
2018-07-09T08:40:47.065Z,75.20
2018-07-09T08:43:20.537Z,75.20
2018-07-09T08:48:18.960Z,69.20
2018-07-09T08:50:48.748Z,67.70
2018-07-09T08:55:47.142Z,66.90
2018-07-09T08:58:16.732Z,64.90
2018-07-09T09:00:47.085Z,65.10
2018-07-09T09:03:17.130Z,63.80
2018-07-09T09:05:46.562Z,63.20
2018-07-09T09:10:45.105Z,62.20
2018-07-09T09:13:15.074Z,62.20
2018-07-09T09:15:44.806Z,59.90
2018-07-09T09:20:43.186Z,57.80
2018-07-09T09:23:12.680Z,56.00
2018-07-09T09:25:42.219Z,53.60
2018-07-09T09:28:11.804Z,52.30
2018-07-09T09:33:10.510Z,49.50
2018-07-09T09:35:39.905Z,50.10
2018-07-09T09:38:09.235Z,49.10
2018-07-09T09:40:39.240Z,48.70
2018-07-09T09:45:45.502Z,45.20
2018-07-09T09:51:13.232Z,42.70
2018-07-09T09:53:43.547Z,42.60
2018-07-09T09:56:24.886Z,43.00
2018-07-09T09:58:55.222Z,43.50
2018-07-09T10:01:25.058Z,44.50
2018-07-09T10:03:54.502Z,45.10
2018-07-09T10:06:23.979Z,46.00
2018-07-09T10:08:53.382Z,46.60
2018-07-09T10:11:22.767Z,47.10
2018-07-09T10:13:52.779Z,47.60
2018-07-09T10:16:22.884Z,48.30
2018-07-09T10:23:50.179Z,49.50
2018-07-09T10:26:19.879Z,49.30
2018-07-09T10:28:49.464Z,50.90
2018-07-09T10:31:18.929Z,51.00
2018-07-09T10:33:48.457Z,51.60
2018-07-09T10:36:17.860Z,52.10
2018-07-09T10:38:47.445Z,52.10
2018-07-09T10:41:17.458Z,52.50
2018-07-09T10:43:47.584Z,52.60
2018-07-09T10:46:16.992Z,53.20
2018-07-09T10:48:46.453Z,53.60
2018-07-09T10:51:15.911Z,54.60
2018-07-09T10:53:45.397Z,54.80
2018-07-09T10:56:14.800Z,55.20
2018-07-09T10:58:44.287Z,56.20
2018-07-09T11:01:13.873Z,56.20
2018-07-09T11:03:43.204Z,56.80
2018-07-09T11:06:12.638Z,57.20
2018-07-09T11:08:42.153Z,57.70
2018-07-09T11:11:11.611Z,58.20
2018-07-09T11:13:41.604Z,58.20
2018-07-09T11:16:11.094Z,58.10
2018-07-09T11:21:09.586Z,57.70
2018-07-09T11:23:40.308Z,57.40
2018-07-09T11:26:09.877Z,56.70
2018-07-09T11:28:39.386Z,55.80
2018-07-09T11:31:08.841Z,55.40
2018-07-09T11:33:38.704Z,55.40
2018-07-09T11:36:08.275Z,54.70
2018-07-09T11:38:37.727Z,54.50
2018-07-09T11:41:07.148Z,54.60
2018-07-09T11:46:05.522Z,55.20
2018-07-09T11:48:35.797Z,54.80
2018-07-09T11:51:05.275Z,55.20
2018-07-09T11:56:03.856Z,54.10
2018-07-09T11:58:34.245Z,53.90
2018-07-09T12:01:03.776Z,53.40
2018-07-09T12:03:33.227Z,52.40
2018-07-09T12:06:02.549Z,51.70
2018-07-09T12:08:32.062Z,51.80
2018-07-09T12:11:01.486Z,52.20
2018-07-09T12:13:30.842Z,51.70
2018-07-09T12:16:00.197Z,51.00
2018-07-09T12:18:29.631Z,51.30
2018-07-09T12:20:59.080Z,51.40
2018-07-09T12:23:28.544Z,52.00
2018-07-09T12:25:58.360Z,52.20
2018-07-09T12:28:27.827Z,52.80
2018-07-09T12:30:57.239Z,53.80
2018-07-09T12:35:55.476Z,54.70
2018-07-09T12:38:25.243Z,54.80
2018-07-09T12:40:54.682Z,56.60
2018-07-09T12:43:24.069Z,56.70
2018-07-09T12:45:54.089Z,56.80
2018-07-09T12:48:23.573Z,57.50
2018-07-09T12:50:52.938Z,57.60
2018-07-09T12:53:22.871Z,57.70
2018-07-09T12:55:52.296Z,58.60
2018-07-09T12:58:21.612Z,58.90
2018-07-09T13:00:50.985Z,59.30
2018-07-09T13:03:20.461Z,58.90
2018-07-09T13:05:50.824Z,55.80
2018-07-09T13:08:20.875Z,54.10
2018-07-09T13:10:50.310Z,54.20
2018-07-09T13:13:20.071Z,55.00
2018-07-09T13:15:49.602Z,52.60
2018-07-09T13:18:18.983Z,51.10
2018-07-09T13:20:48.268Z,50.10
2018-07-09T13:30:45.152Z,53.60
2018-07-09T13:35:43.443Z,49.20
2018-07-09T13:38:13.403Z,49.50
2018-07-09T13:40:42.833Z,49.80
2018-07-09T13:43:12.205Z,51.40
2018-07-09T13:45:41.601Z,52.00
2018-07-09T13:48:11.061Z,52.70
2018-07-09T13:53:09.342Z,53.70
2018-07-09T13:55:39.054Z,54.40
2018-07-09T14:03:06.465Z,56.30
2018-07-09T14:05:35.921Z,56.30
2018-07-09T14:08:05.472Z,55.10
2018-07-09T14:10:35.433Z,53.40
2018-07-09T14:15:33.813Z,55.00
2018-07-09T14:18:03.812Z,56.30
2018-07-09T14:20:34.445Z,57.10
2018-07-09T14:23:04.801Z,58.00
2018-07-09T14:25:34.235Z,58.50
2018-07-09T14:28:03.770Z,59.00
2018-07-09T14:33:06.674Z,59.60
2018-07-09T14:35:37.464Z,58.60
2018-07-09T14:38:07.750Z,57.50
2018-07-09T14:40:37.828Z,57.30
2018-07-09T14:45:36.333Z,56.30
2018-07-09T14:48:05.744Z,51.70
2018-07-09T14:50:35.068Z,49.10
2018-07-09T14:53:05.106Z,47.10
2018-07-09T14:55:34.509Z,49.50
2018-07-09T14:58:04.125Z,49.80
2018-07-09T15:00:33.702Z,51.20
2018-07-09T15:03:03.228Z,51.10
2018-07-09T15:05:33.045Z,49.20
2018-07-09T15:08:03.418Z,47.30
2018-07-09T15:10:34.319Z,46.80
2018-07-09T15:13:03.777Z,46.10
2018-07-09T15:15:33.168Z,42.90
2018-07-09T15:18:03.104Z,41.20
2018-07-09T15:20:32.522Z,40.60
2018-07-09T15:23:03.354Z,41.00
2018-07-09T15:25:32.739Z,41.20
2018-07-09T15:28:02.154Z,42.00
2018-07-09T15:30:32.329Z,43.50
2018-07-09T15:33:01.681Z,45.30
2018-07-09T15:35:31.111Z,46.10
2018-07-09T15:40:29.819Z,46.00
2018-07-09T15:45:30.277Z,44.60
2018-07-09T15:48:00.945Z,44.10
2018-07-09T15:50:30.312Z,43.60
2018-07-09T15:52:59.773Z,43.20
2018-07-09T15:55:30.066Z,42.70
2018-07-09T15:57:59.658Z,42.60
2018-07-09T16:00:29.142Z,42.00
2018-07-09T16:02:58.635Z,40.70
2018-07-09T16:07:56.908Z,40.20
2018-07-09T16:12:55.811Z,40.50
2018-07-09T16:15:25.162Z,41.10
2018-07-09T16:17:54.529Z,41.90
2018-07-09T16:22:52.867Z,43.00
2018-07-09T16:25:22.920Z,43.50
2018-07-09T16:27:52.399Z,44.20
2018-07-09T16:30:22.162Z,44.60
2018-07-09T16:35:24.416Z,44.80
2018-07-09T16:38:04.726Z,44.10
2018-07-09T16:40:41.921Z,44.20
2018-07-09T16:43:12.895Z,45.10
2018-07-09T16:45:42.265Z,45.60
2018-07-09T16:48:12.432Z,45.70
2018-07-09T16:50:43.215Z,46.00
2018-07-09T16:53:13.446Z,46.50
2018-07-09T16:55:42.904Z,47.00
2018-07-09T17:00:42.045Z,47.60
2018-07-09T17:49:29.953Z,48.50
2018-07-09T17:51:59.371Z,51.00
2018-07-09T17:54:28.923Z,51.20
2018-07-09T17:56:58.519Z,50.50
2018-07-09T17:59:27.857Z,50.60
2018-07-09T18:04:26.764Z,51.00
2018-07-09T18:09:25.908Z,51.40
2018-07-09T18:11:55.310Z,51.60
2018-07-09T18:14:26.736Z,51.80
2018-07-09T18:16:59.525Z,52.00
2018-07-09T18:19:29.295Z,52.10
2018-07-09T18:21:59.286Z,52.00
2018-07-09T18:24:29.784Z,51.90
2018-07-09T18:27:00.999Z,51.90
2018-07-09T18:32:00.159Z,51.60
2018-07-09T18:34:30.113Z,51.90
2018-07-09T18:39:29.246Z,51.30
2018-07-09T18:44:30.557Z,51.00
2018-07-09T18:47:00.075Z,51.10
2018-07-09T18:49:29.647Z,51.40
2018-07-09T18:51:59.640Z,51.50
2018-07-09T18:54:29.343Z,51.70
2018-07-09T19:02:00.177Z,52.00
2018-07-09T19:04:29.788Z,52.30
2018-07-09T19:07:03.365Z,52.20
2018-07-09T19:09:34.521Z,52.50
2018-07-09T19:12:11.873Z,52.60
2018-07-09T19:14:44.186Z,52.60
2018-07-09T19:17:56.122Z,52.50
2018-07-09T19:20:37.613Z,52.70
2018-07-09T19:23:15.476Z,52.80
2018-07-09T19:25:43.951Z,53.00
2018-07-09T19:28:12.482Z,53.00
2018-07-09T19:30:41.456Z,53.20
2018-07-09T19:35:39.692Z,53.60
2018-07-09T19:38:08.999Z,53.70
2018-07-09T19:40:38.207Z,53.90
2018-07-09T19:43:06.528Z,54.00
2018-07-09T19:45:34.857Z,54.10
2018-07-09T19:48:03.175Z,54.30
2018-07-09T19:50:31.408Z,54.50
2018-07-09T19:53:00.882Z,54.60
2018-07-09T19:55:29.188Z,54.50
2018-07-09T19:57:57.462Z,54.60
2018-07-09T20:00:26.340Z,54.80
2018-07-09T20:02:58.875Z,54.80
2018-07-09T20:05:27.218Z,55.00
2018-07-09T20:07:55.477Z,55.30
2018-07-09T20:10:32.910Z,55.50
2018-07-09T20:13:09.733Z,55.80
2018-07-09T20:15:43.307Z,56.00
2018-07-09T20:18:11.520Z,56.30
2018-07-09T20:20:39.801Z,56.60
2018-07-09T20:23:09.864Z,56.70
2018-07-09T20:25:38.145Z,56.80
2018-07-09T20:28:06.498Z,57.00
2018-07-09T20:30:34.681Z,57.30
2018-07-09T20:33:02.921Z,57.50
2018-07-09T20:35:31.149Z,57.80
2018-07-09T20:38:00.241Z,57.80
2018-07-09T20:40:28.411Z,57.80
2018-07-09T20:42:56.742Z,57.80
2018-07-09T20:45:24.936Z,57.70
2018-07-09T20:50:21.487Z,57.70
2018-07-09T20:52:50.734Z,57.50
2018-07-09T20:57:47.750Z,57.70
2018-07-09T21:00:16.058Z,57.80
2018-07-09T21:02:44.375Z,57.60
2018-07-09T21:10:10.021Z,58.00
2018-07-09T21:15:12.096Z,58.10
2018-07-09T21:20:08.520Z,59.00
2018-07-09T21:22:36.985Z,58.40
2018-07-09T21:25:05.637Z,58.70
2018-07-09T21:32:31.229Z,59.50
2018-07-09T21:34:59.493Z,59.30
2018-07-09T21:37:27.748Z,59.50
2018-07-09T21:39:56.000Z,59.50
2018-07-09T21:44:52.633Z,59.60
2018-07-09T21:47:20.880Z,59.70
2018-07-09T21:49:49.036Z,59.80
2018-07-09T21:52:17.311Z,60.00
2018-07-09T21:54:45.527Z,59.90
2018-07-09T21:57:13.727Z,60.10
2018-07-09T21:59:42.606Z,60.20
2018-07-09T22:04:39.245Z,60.50
2018-07-09T22:07:07.473Z,60.70
2018-07-09T22:09:35.747Z,60.90
2018-07-09T22:12:03.955Z,61.00
2018-07-09T22:14:32.166Z,61.00
2018-07-09T22:19:28.791Z,61.40
2018-07-09T22:21:57.177Z,61.60
2018-07-09T22:24:25.449Z,62.40
2018-07-09T22:29:22.061Z,62.60
2018-07-09T22:31:51.570Z,61.90
2018-07-09T22:34:21.809Z,62.60
2018-07-09T22:36:51.491Z,62.10
2018-07-09T22:39:20.891Z,62.30
2018-07-09T22:41:50.446Z,62.40
2018-07-09T22:44:21.967Z,62.40
2018-07-09T22:46:51.415Z,62.50
2018-07-09T22:49:20.952Z,62.60
2018-07-09T22:51:50.478Z,63.00
2018-07-09T22:54:20.726Z,63.30
2018-07-09T22:56:50.267Z,63.60
2018-07-09T23:01:48.622Z,64.40
2018-07-09T23:04:18.061Z,64.50
2018-07-09T23:06:47.525Z,64.60
2018-07-09T23:11:36.386Z,64.90
2018-07-09T23:16:21.744Z,65.00
2018-07-09T23:19:02.703Z,65.20
2018-07-09T23:24:05.797Z,66.00
2018-07-09T23:26:34.052Z,66.20
2018-07-09T23:29:03.059Z,66.20
2018-07-09T23:33:59.913Z,66.00
2018-07-09T23:36:28.248Z,65.90
2018-07-09T23:41:24.831Z,66.60
2018-07-09T23:43:53.061Z,66.40
2018-07-09T23:46:21.268Z,66.50
2018-07-09T23:48:49.531Z,66.40
2018-07-09T23:51:19.106Z,66.90
2018-07-09T23:53:48.154Z,66.40
2018-07-09T23:59:30.459Z,66.30
